createdAt,value
2022-08-26T00:00:41.799Z,11.18
2022-08-26T00:03:07.063Z,12.48
2022-08-26T00:05:31.197Z,10.73
2022-08-26T00:07:55.318Z,11.30
2022-08-26T00:10:19.760Z,11.50
2022-08-26T00:12:46.171Z,13.90
2022-08-26T00:15:13.727Z,12.65
2022-08-26T00:17:37.691Z,11.43
2022-08-26T00:20:07.363Z,11.38
2022-08-26T00:22:31.248Z,12.63
2022-08-26T00:24:54.877Z,12.30
2022-08-26T00:27:18.687Z,11.88
2022-08-26T00:29:44.531Z,13.80
2022-08-26T00:32:08.884Z,12.98
2022-08-26T00:34:35.772Z,13.98
2022-08-26T00:37:00.858Z,14.88
2022-08-26T00:39:24.553Z,15.02
2022-08-26T00:41:48.892Z,13.52
2022-08-26T00:44:12.751Z,12.85
2022-08-26T00:46:46.578Z,11.85
2022-08-26T00:49:17.291Z,13.30
2022-08-26T00:51:50.964Z,14.70
2022-08-26T00:54:18.776Z,14.63
2022-08-26T00:56:48.622Z,14.60
2022-08-26T00:59:14.811Z,15.27
2022-08-26T01:02:02.808Z,15.07
2022-08-26T01:04:26.832Z,15.10
2022-08-26T01:06:53.988Z,13.80
2022-08-26T01:09:20.883Z,15.77
2022-08-26T01:11:46.172Z,14.43
2022-08-26T01:14:11.803Z,14.48
2022-08-26T01:16:36.351Z,14.80
2022-08-26T01:19:09.222Z,16.35
2022-08-26T01:21:40.685Z,15.20
2022-08-26T01:24:08.335Z,15.25
2022-08-26T01:26:39.510Z,14.77
2022-08-26T01:29:07.776Z,16.83
2022-08-26T01:31:44.098Z,16.77
2022-08-26T01:34:13.555Z,15.73
2022-08-26T01:36:39.310Z,16.90
2022-08-26T01:39:03.312Z,16.70
2022-08-26T01:41:31.592Z,16.38
2022-08-26T01:43:57.981Z,15.23
2022-08-26T01:46:23.788Z,16.50
2022-08-26T01:48:48.990Z,16.60
2022-08-26T01:51:20.262Z,15.75
2022-08-26T01:53:46.020Z,16.02
2022-08-26T01:56:12.191Z,16.90
2022-08-26T01:58:43.376Z,16.67
2022-08-26T02:01:08.122Z,17.70
2022-08-26T02:03:34.221Z,16.33
2022-08-26T02:06:06.367Z,16.70
2022-08-26T02:08:40.475Z,15.35
2022-08-26T02:11:04.439Z,16.48
2022-08-26T02:13:30.410Z,17.77
2022-08-26T02:15:56.507Z,17.52
2022-08-26T02:18:20.660Z,15.48
2022-08-26T02:20:46.668Z,16.67
2022-08-26T02:23:15.379Z,16.23
2022-08-26T02:25:47.331Z,16.77
2022-08-26T02:28:11.956Z,15.05
2022-08-26T02:30:35.985Z,15.75
2022-08-26T02:33:03.649Z,18.90
2022-08-26T02:35:28.408Z,17.67
2022-08-26T02:37:54.656Z,17.67
2022-08-26T02:40:21.969Z,17.77
2022-08-26T02:42:46.163Z,16.73
2022-08-26T02:45:11.812Z,17.33
2022-08-26T02:47:35.970Z,16.08
2022-08-26T02:50:01.895Z,18.30
2022-08-26T02:52:25.779Z,18.70
2022-08-26T02:54:49.459Z,16.38
2022-08-26T02:57:14.119Z,18.10
2022-08-26T02:59:39.308Z,15.02
2022-08-26T03:02:03.231Z,15.35
2022-08-26T03:04:26.989Z,17.98
2022-08-26T03:06:52.904Z,17.88
2022-08-26T03:09:18.627Z,17.20
2022-08-26T03:11:42.760Z,16.83
2022-08-26T03:14:07.756Z,18.80
2022-08-26T03:16:34.587Z,14.70
2022-08-26T03:18:58.268Z,13.68
2022-08-26T03:21:22.944Z,15.88
2022-08-26T03:23:48.217Z,15.63
2022-08-26T03:26:14.977Z,16.83
2022-08-26T03:29:01.101Z,18.52
2022-08-26T03:31:24.952Z,16.05
2022-08-26T03:33:48.780Z,16.73
2022-08-26T03:36:13.272Z,18.80
2022-08-26T03:38:38.179Z,17.25
2022-08-26T03:41:04.246Z,18.33
2022-08-26T03:43:30.599Z,19.13
2022-08-26T03:45:54.278Z,17.63
2022-08-26T03:48:18.408Z,19.60
2022-08-26T03:50:43.559Z,23.05
2022-08-26T03:53:07.411Z,24.08
2022-08-26T03:55:34.900Z,24.33
2022-08-26T03:58:00.890Z,23.83
2022-08-26T04:00:24.766Z,27.50
2022-08-26T04:02:53.160Z,22.45
2022-08-26T04:05:21.723Z,20.25
2022-08-26T04:07:46.965Z,21.73
2022-08-26T04:10:14.015Z,20.40
2022-08-26T04:12:39.908Z,21.00
2022-08-26T04:15:07.044Z,22.00
2022-08-26T04:17:30.708Z,20.35
2022-08-26T04:19:55.213Z,20.92
2022-08-26T04:22:24.151Z,19.92
2022-08-26T04:24:48.718Z,19.73
2022-08-26T04:27:14.055Z,21.05
2022-08-26T04:29:41.644Z,21.00
2022-08-26T04:32:07.061Z,19.35
2022-08-26T04:34:32.446Z,22.23
2022-08-26T04:36:57.886Z,21.52
2022-08-26T04:39:21.704Z,20.88
2022-08-26T04:41:46.884Z,19.27
2022-08-26T04:44:10.624Z,20.55
2022-08-26T04:46:34.697Z,18.70
2022-08-26T04:49:00.408Z,18.85
2022-08-26T04:51:28.091Z,19.33
2022-08-26T04:53:51.964Z,19.90
2022-08-26T04:56:16.656Z,21.70
2022-08-26T04:58:41.338Z,19.30
2022-08-26T05:01:05.644Z,18.77
2022-08-26T05:03:30.462Z,17.42
2022-08-26T05:05:56.528Z,19.98
2022-08-26T05:08:22.871Z,20.13
2022-08-26T05:10:50.226Z,19.25
2022-08-26T05:13:15.751Z,17.40
2022-08-26T05:15:39.532Z,18.35
2022-08-26T05:18:04.079Z,18.88
2022-08-26T05:20:27.964Z,18.88
2022-08-26T05:22:53.131Z,17.90
2022-08-26T05:25:18.497Z,18.88
2022-08-26T05:27:42.600Z,17.42
2022-08-26T05:30:07.571Z,17.90
2022-08-26T05:32:31.946Z,17.58
2022-08-26T05:34:57.155Z,17.67
2022-08-26T05:37:22.627Z,17.30
2022-08-26T05:39:51.179Z,16.60
2022-08-26T05:42:15.463Z,16.80
2022-08-26T05:44:53.777Z,16.17
2022-08-26T05:47:19.643Z,16.85
2022-08-26T05:49:49.263Z,15.13
2022-08-26T05:52:15.505Z,14.93
2022-08-26T05:54:40.920Z,16.38
2022-08-26T05:57:06.392Z,15.25
2022-08-26T05:59:30.082Z,15.55
2022-08-26T06:01:56.260Z,15.98
2022-08-26T06:04:20.515Z,16.25
2022-08-26T06:06:45.073Z,14.95
2022-08-26T06:09:11.089Z,14.80
2022-08-26T06:11:35.412Z,14.38
2022-08-26T06:14:04.595Z,13.77
2022-08-26T06:16:28.348Z,13.55
2022-08-26T06:18:53.322Z,12.93
2022-08-26T06:21:21.224Z,12.73
2022-08-26T06:24:03.287Z,12.90
2022-08-26T06:26:27.507Z,11.60
2022-08-26T06:28:51.216Z,11.80
2022-08-26T06:31:17.587Z,12.02
2022-08-26T06:33:41.427Z,11.90
2022-08-26T06:36:06.653Z,11.23
2022-08-26T06:38:30.523Z,10.60
2022-08-26T06:40:59.625Z,11.10
2022-08-26T06:43:28.366Z,10.73
2022-08-26T06:45:52.901Z,11.43
2022-08-26T06:48:21.989Z,10.40
2022-08-26T06:50:45.966Z,10.13
2022-08-26T06:53:09.959Z,10.27
2022-08-26T06:55:33.644Z,10.00
2022-08-26T06:57:58.391Z,10.82
2022-08-26T07:00:22.628Z,9.82
2022-08-26T07:02:47.110Z,10.15
2022-08-26T07:05:13.242Z,9.63
2022-08-26T07:07:37.202Z,9.88
2022-08-26T07:10:01.635Z,9.32
2022-08-26T07:12:25.852Z,10.35
2022-08-26T07:14:49.719Z,10.65
2022-08-26T07:17:14.345Z,9.90
2022-08-26T07:19:38.499Z,10.02
2022-08-26T07:22:07.407Z,9.50
2022-08-26T07:24:33.707Z,9.60
2022-08-26T07:27:01.937Z,10.15
2022-08-26T07:29:26.531Z,9.98
2022-08-26T07:31:50.637Z,10.27
2022-08-26T07:34:14.644Z,9.63
2022-08-26T07:36:38.317Z,10.73
2022-08-26T07:39:03.508Z,9.40
2022-08-26T07:41:27.536Z,9.75
2022-08-26T07:43:52.070Z,9.48
2022-08-26T07:46:20.746Z,9.43
2022-08-26T07:48:52.043Z,9.60
2022-08-26T07:51:17.518Z,9.63
2022-08-26T07:53:41.250Z,8.60
2022-08-26T07:56:06.491Z,8.80
2022-08-26T07:58:30.829Z,9.18
2022-08-26T08:00:54.472Z,8.15
2022-08-26T08:03:18.179Z,9.15
2022-08-26T08:05:42.176Z,8.95
2022-08-26T08:08:21.873Z,8.25
2022-08-26T08:10:51.277Z,8.40
2022-08-26T08:13:16.832Z,8.38
2022-08-26T08:15:42.687Z,8.77
2022-08-26T08:18:07.644Z,8.52
2022-08-26T08:20:42.279Z,8.43
2022-08-26T08:23:08.660Z,8.43
2022-08-26T08:25:34.448Z,8.20
2022-08-26T08:27:58.388Z,8.35
2022-08-26T08:30:24.533Z,9.13
2022-08-26T08:32:48.780Z,8.30
2022-08-26T08:35:15.579Z,8.40
2022-08-26T08:37:39.363Z,8.65
2022-08-26T08:40:03.444Z,7.97
2022-08-26T08:42:45.649Z,9.25
2022-08-26T08:45:15.425Z,7.95
2022-08-26T08:47:48.828Z,8.00
2022-08-26T08:50:24.815Z,7.97
2022-08-26T08:52:58.974Z,7.90
2022-08-26T08:55:24.117Z,7.97
2022-08-26T08:58:02.551Z,7.57
2022-08-26T09:00:30.120Z,7.85
2022-08-26T09:03:03.166Z,7.97
2022-08-26T09:05:31.960Z,8.85
2022-08-26T09:08:03.075Z,8.68
2022-08-26T09:10:36.738Z,7.25
2022-08-26T09:13:02.667Z,6.97
2022-08-26T09:15:33.210Z,7.55
2022-08-26T09:18:11.233Z,6.68
2022-08-26T09:20:45.661Z,7.20
2022-08-26T09:23:11.320Z,7.28
2022-08-26T09:25:35.517Z,7.00
2022-08-26T09:28:03.964Z,7.15
2022-08-26T09:30:33.057Z,7.32
2022-08-26T09:33:10.218Z,6.93
2022-08-26T09:35:38.111Z,7.22
2022-08-26T09:38:02.423Z,7.05
2022-08-26T09:40:34.820Z,7.28
2022-08-26T09:43:15.791Z,7.38
2022-08-26T09:45:41.861Z,7.20
2022-08-26T09:48:28.959Z,6.97
2022-08-26T09:50:57.179Z,7.22
2022-08-26T09:53:25.173Z,7.03
2022-08-26T09:56:13.337Z,7.07
2022-08-26T09:58:40.135Z,7.15
2022-08-26T10:01:09.077Z,7.45
2022-08-26T10:03:38.052Z,6.82
2022-08-26T10:06:04.776Z,7.45
2022-08-26T10:08:32.328Z,6.60
2022-08-26T10:10:57.939Z,10.95
2022-08-26T10:13:31.288Z,8.65
2022-08-26T10:16:03.171Z,7.95
2022-08-26T10:18:35.027Z,7.07
2022-08-26T10:21:07.293Z,18.02
2022-08-26T10:23:37.960Z,10.10
2022-08-26T10:26:07.200Z,7.60
2022-08-26T10:28:38.799Z,8.02
2022-08-26T10:31:08.683Z,7.65
2022-08-26T10:33:32.512Z,7.40
2022-08-26T10:36:00.118Z,7.50
2022-08-26T10:38:32.527Z,7.30
2022-08-26T10:41:09.886Z,7.43
2022-08-26T10:43:41.418Z,7.22
2022-08-26T10:46:10.255Z,7.38
2022-08-26T10:48:47.824Z,7.40
2022-08-26T10:51:15.971Z,7.45
2022-08-26T10:53:52.067Z,7.20
2022-08-26T10:56:30.192Z,6.93
2022-08-26T10:59:10.282Z,7.00
2022-08-26T11:01:43.488Z,7.00
2022-08-26T11:04:22.510Z,6.78
2022-08-26T11:06:47.870Z,7.00
2022-08-26T11:09:11.640Z,7.10
2022-08-26T11:11:49.371Z,7.57
2022-08-26T11:14:53.590Z,7.28
2022-08-26T11:18:02.772Z,6.85
2022-08-26T11:20:37.255Z,7.22
2022-08-26T11:23:50.558Z,7.05
2022-08-26T11:26:30.012Z,7.40
2022-08-26T11:29:01.410Z,7.35
2022-08-26T11:31:59.112Z,6.80
2022-08-26T11:34:57.872Z,6.63
2022-08-26T11:37:30.963Z,3.90
2022-08-26T11:39:57.992Z,4.60
2022-08-26T11:42:32.566Z,4.00
2022-08-26T11:44:58.178Z,4.22
2022-08-26T11:47:29.807Z,4.30
2022-08-26T11:50:09.985Z,2.95
2022-08-26T11:52:33.887Z,2.55
2022-08-26T11:55:10.220Z,2.80
2022-08-26T11:57:37.540Z,2.40
2022-08-26T12:00:02.125Z,2.50
2022-08-26T12:02:29.651Z,2.47
2022-08-26T12:04:55.080Z,2.50
2022-08-26T12:07:24.466Z,2.70
2022-08-26T12:09:58.091Z,2.80
2022-08-26T12:12:34.774Z,2.80
2022-08-26T12:15:14.075Z,3.22
2022-08-26T12:17:38.754Z,3.00
2022-08-26T12:20:02.362Z,2.97
2022-08-26T12:22:29.191Z,3.30
2022-08-26T12:24:56.945Z,2.78
2022-08-26T12:27:26.535Z,3.25
2022-08-26T12:30:12.438Z,3.20
2022-08-26T12:32:58.020Z,3.80
2022-08-26T12:35:23.038Z,4.25
2022-08-26T12:37:50.112Z,4.93
2022-08-26T12:40:35.502Z,5.50
2022-08-26T12:43:02.090Z,5.93
2022-08-26T12:45:30.493Z,6.50
2022-08-26T12:47:58.665Z,6.10
2022-08-26T12:50:26.151Z,6.55
2022-08-26T12:52:59.752Z,7.10
2022-08-26T12:55:27.888Z,6.20
2022-08-26T12:58:13.000Z,6.30
2022-08-26T13:00:40.662Z,6.78
2022-08-26T13:03:05.159Z,7.82
2022-08-26T13:05:33.088Z,7.28
2022-08-26T13:08:16.245Z,7.78
2022-08-26T13:10:43.495Z,6.15
2022-08-26T13:13:07.512Z,6.05
2022-08-26T13:15:32.908Z,6.45
2022-08-26T13:17:58.236Z,6.28
2022-08-26T13:20:22.743Z,5.93
2022-08-26T13:22:46.505Z,6.18
2022-08-26T13:25:19.638Z,6.00
2022-08-26T13:27:43.814Z,7.57
2022-08-26T13:30:08.643Z,6.80
2022-08-26T13:32:33.739Z,7.03
2022-08-26T13:34:58.850Z,6.63
2022-08-26T13:37:24.338Z,7.35
2022-08-26T13:39:59.092Z,7.50
2022-08-26T13:42:22.990Z,8.25
2022-08-26T13:44:49.680Z,8.63
2022-08-26T13:47:13.254Z,7.28
2022-08-26T13:49:38.657Z,8.30
2022-08-26T13:52:03.745Z,7.35
2022-08-26T13:54:27.440Z,7.72
2022-08-26T13:56:51.723Z,8.05
2022-08-26T13:59:16.284Z,7.70
2022-08-26T14:01:40.221Z,7.25
2022-08-26T14:04:04.677Z,7.85
2022-08-26T14:06:30.038Z,7.75
2022-08-26T14:08:53.842Z,8.00
2022-08-26T14:11:17.779Z,7.90
2022-08-26T14:13:41.552Z,7.35
2022-08-26T14:16:10.393Z,7.22
2022-08-26T14:18:42.139Z,7.68
2022-08-26T14:21:08.554Z,8.23
2022-08-26T14:23:33.619Z,7.22
2022-08-26T14:25:57.212Z,6.90
2022-08-26T14:28:20.978Z,7.10
2022-08-26T14:30:49.556Z,7.68
2022-08-26T14:33:16.684Z,7.20
2022-08-26T14:35:40.554Z,7.68
2022-08-26T14:38:12.224Z,8.25
2022-08-26T14:40:40.167Z,7.97
2022-08-26T14:43:03.949Z,6.72
2022-08-26T14:45:29.633Z,8.45
2022-08-26T14:47:56.621Z,9.00
2022-08-26T14:50:24.104Z,10.43
2022-08-26T14:53:05.071Z,9.35
2022-08-26T14:55:29.936Z,9.52
2022-08-26T14:57:55.147Z,9.43
2022-08-26T15:00:19.796Z,8.38
2022-08-26T15:02:44.473Z,8.27
2022-08-26T15:05:10.844Z,7.90
2022-08-26T15:07:34.668Z,8.10
2022-08-26T15:09:58.483Z,8.32
2022-08-26T15:12:22.724Z,8.38
2022-08-26T15:14:47.759Z,7.97
2022-08-26T15:17:11.450Z,8.50
2022-08-26T15:19:35.169Z,10.02
2022-08-26T15:21:58.869Z,8.50
2022-08-26T15:24:26.427Z,7.65
2022-08-26T15:26:50.641Z,7.72
2022-08-26T15:29:14.353Z,7.63
2022-08-26T15:31:40.466Z,7.63
2022-08-26T15:34:07.509Z,8.98
2022-08-26T15:36:33.133Z,9.30
2022-08-26T15:38:58.532Z,9.57
2022-08-26T15:41:22.895Z,8.57
2022-08-26T15:43:46.710Z,9.60
2022-08-26T15:46:13.647Z,9.35
2022-08-26T15:48:38.910Z,9.90
2022-08-26T15:51:04.370Z,8.48
2022-08-26T15:53:30.136Z,8.63
2022-08-26T15:55:56.351Z,8.38
2022-08-26T15:58:20.698Z,9.50
2022-08-26T16:00:44.923Z,8.73
2022-08-26T16:03:09.456Z,8.20
2022-08-26T16:05:34.756Z,8.05
2022-08-26T16:07:58.708Z,7.45
2022-08-26T16:10:22.583Z,7.40
2022-08-26T16:12:46.719Z,7.22
2022-08-26T16:15:12.211Z,7.32
2022-08-26T16:17:35.844Z,7.63
2022-08-26T16:19:59.827Z,8.32
2022-08-26T16:22:24.963Z,8.18
2022-08-26T16:24:52.211Z,8.90
2022-08-26T16:27:15.904Z,8.68
2022-08-26T16:29:40.387Z,8.50
2022-08-26T16:32:08.719Z,8.85
2022-08-26T16:34:32.463Z,9.38
2022-08-26T16:36:56.123Z,10.38
2022-08-26T16:39:21.228Z,8.98
2022-08-26T16:41:45.118Z,8.35
2022-08-26T16:44:11.470Z,9.70
2022-08-26T16:46:36.301Z,10.18
2022-08-26T16:49:03.579Z,9.10
2022-08-26T16:51:29.575Z,8.15
2022-08-26T16:53:54.747Z,9.45
2022-08-26T16:56:23.351Z,9.63
2022-08-26T16:58:57.608Z,8.02
2022-08-26T17:01:21.934Z,8.88
2022-08-26T17:03:46.037Z,10.25
2022-08-26T17:06:11.105Z,10.75
2022-08-26T17:08:34.806Z,9.60
2022-08-26T17:11:00.127Z,9.70
2022-08-26T17:13:35.914Z,9.77
2022-08-26T17:16:00.095Z,10.48
2022-08-26T17:18:30.409Z,8.98
2022-08-26T17:20:54.571Z,9.18
2022-08-26T17:23:19.046Z,8.20
2022-08-26T17:25:43.158Z,8.68
2022-08-26T17:28:12.695Z,8.77
2022-08-26T17:30:38.962Z,7.63
2022-08-26T17:33:10.980Z,8.77
2022-08-26T17:35:35.298Z,9.82
2022-08-26T17:37:59.827Z,11.00
2022-08-26T17:40:27.013Z,10.80
2022-08-26T17:42:50.843Z,11.90
2022-08-26T17:45:14.640Z,10.63
2022-08-26T17:47:41.086Z,10.48
2022-08-26T17:50:07.327Z,11.60
2022-08-26T17:52:31.624Z,11.65
2022-08-26T17:54:56.726Z,9.77
2022-08-26T17:57:20.449Z,11.70
2022-08-26T17:59:44.795Z,9.98
2022-08-26T18:02:09.922Z,10.77
2022-08-26T18:04:34.991Z,9.57
2022-08-26T18:06:58.647Z,12.02
2022-08-26T18:09:22.426Z,11.45
2022-08-26T18:11:46.131Z,11.55
2022-08-26T18:14:09.823Z,12.52
2022-08-26T18:16:38.355Z,10.05
2022-08-26T18:19:02.421Z,12.15
2022-08-26T18:21:28.865Z,12.57
2022-08-26T18:23:53.408Z,13.52
2022-08-26T18:26:19.494Z,10.88
2022-08-26T18:28:43.131Z,11.45
2022-08-26T18:31:09.755Z,12.10
2022-08-26T18:33:33.478Z,11.75
2022-08-26T18:35:57.142Z,13.40
2022-08-26T18:38:22.450Z,14.48
2022-08-26T18:40:46.964Z,13.23
2022-08-26T18:43:11.497Z,11.85
2022-08-26T18:45:35.638Z,14.00
2022-08-26T18:47:59.423Z,14.13
2022-08-26T18:50:22.900Z,12.60
2022-08-26T18:52:46.696Z,11.93
2022-08-26T18:55:12.066Z,11.77
2022-08-26T18:57:36.120Z,12.43
2022-08-26T18:59:59.770Z,11.60
2022-08-26T19:02:24.474Z,15.18
2022-08-26T19:04:48.014Z,13.13
2022-08-26T19:07:11.994Z,13.70
2022-08-26T19:09:36.668Z,11.73
2022-08-26T19:12:02.732Z,13.60
2022-08-26T19:14:26.690Z,13.07
2022-08-26T19:16:52.493Z,14.07
2022-08-26T19:19:17.335Z,13.93
2022-08-26T19:21:41.703Z,17.33
2022-08-26T19:24:15.232Z,15.00
2022-08-26T19:26:39.683Z,12.80
2022-08-26T19:29:05.375Z,13.95
2022-08-26T19:31:29.356Z,14.38
2022-08-26T19:33:53.091Z,13.10
2022-08-26T19:36:21.764Z,13.68
2022-08-26T19:38:46.353Z,14.30
2022-08-26T19:41:13.908Z,14.88
2022-08-26T19:43:37.663Z,12.55
2022-08-26T19:46:03.007Z,12.82
2022-08-26T19:48:26.677Z,14.75
2022-08-26T19:50:50.484Z,12.38
2022-08-26T19:53:15.397Z,12.85
2022-08-26T19:55:39.151Z,15.52
2022-08-26T19:58:02.851Z,14.95
2022-08-26T20:00:29.424Z,14.68
2022-08-26T20:02:55.603Z,12.20
2022-08-26T20:05:22.591Z,13.23
2022-08-26T20:07:46.235Z,14.80
2022-08-26T20:10:13.680Z,15.98
2022-08-26T20:12:37.516Z,14.55
2022-08-26T20:15:02.127Z,17.00
2022-08-26T20:17:25.782Z,15.23
2022-08-26T20:20:08.191Z,14.95
2022-08-26T20:22:51.836Z,14.35
2022-08-26T20:25:16.063Z,13.05
2022-08-26T20:27:39.806Z,15.63
2022-08-26T20:30:03.647Z,13.88
2022-08-26T20:32:27.535Z,16.17
2022-08-26T20:34:53.671Z,14.82
2022-08-26T20:37:17.907Z,16.27
2022-08-26T20:39:45.066Z,15.35
2022-08-26T20:42:19.906Z,13.60
2022-08-26T20:44:54.714Z,15.02
2022-08-26T20:47:19.270Z,14.50
2022-08-26T20:49:43.774Z,15.70
2022-08-26T20:52:08.880Z,16.98
2022-08-26T20:54:32.574Z,15.75
2022-08-26T20:56:57.243Z,16.90
2022-08-26T20:59:21.618Z,15.60
2022-08-26T21:01:45.991Z,12.93
2022-08-26T21:04:13.891Z,18.02
2022-08-26T21:06:38.277Z,17.27
2022-08-26T21:09:04.984Z,17.20
2022-08-26T21:11:29.216Z,19.35
2022-08-26T21:14:16.230Z,17.83
2022-08-26T21:16:37.299Z,17.67
2022-08-26T21:19:01.004Z,15.05
2022-08-26T21:21:27.440Z,13.85
2022-08-26T21:23:51.086Z,15.13
2022-08-26T21:26:18.483Z,13.52
2022-08-26T21:28:44.504Z,13.00
2022-08-26T21:31:11.859Z,13.98
2022-08-26T21:33:36.094Z,13.63
2022-08-26T21:35:59.828Z,16.52
2022-08-26T21:38:23.785Z,14.75
2022-08-26T21:40:57.295Z,18.30
2022-08-26T21:43:25.978Z,17.55
2022-08-26T21:45:59.565Z,15.70
2022-08-26T21:48:24.639Z,14.45
2022-08-26T21:50:57.327Z,14.20
2022-08-26T21:53:21.250Z,17.98
2022-08-26T21:55:45.574Z,19.35
2022-08-26T21:58:09.525Z,20.10
2022-08-26T22:00:34.751Z,17.45
2022-08-26T22:03:00.809Z,14.65
2022-08-26T22:05:24.593Z,15.45
2022-08-26T22:07:48.240Z,17.83
2022-08-26T22:10:12.360Z,16.42
2022-08-26T22:12:36.204Z,19.15
2022-08-26T22:14:59.903Z,20.23
2022-08-26T22:17:24.880Z,17.60
2022-08-26T22:19:48.520Z,18.30
2022-08-26T22:22:13.120Z,18.02
2022-08-26T22:24:37.268Z,16.20
2022-08-26T22:27:00.933Z,19.15
2022-08-26T22:29:25.650Z,15.63
2022-08-26T22:31:49.290Z,19.30
2022-08-26T22:34:17.459Z,18.20
2022-08-26T22:36:47.329Z,14.52
2022-08-26T22:39:11.415Z,18.00
2022-08-26T22:41:35.321Z,18.55
2022-08-26T22:43:59.038Z,14.60
2022-08-26T22:46:26.058Z,15.80
2022-08-26T22:48:53.870Z,16.70
2022-08-26T22:51:19.279Z,15.23
2022-08-26T22:53:43.036Z,16.70
2022-08-26T22:56:07.275Z,15.90
2022-08-26T22:58:31.187Z,14.55
2022-08-26T23:00:54.905Z,16.45
2022-08-26T23:03:21.278Z,16.88
2022-08-26T23:05:48.644Z,15.02
2022-08-26T23:08:16.942Z,16.35
2022-08-26T23:10:43.322Z,16.55
2022-08-26T23:13:08.205Z,15.35
2022-08-26T23:15:32.063Z,16.20
2022-08-26T23:17:58.464Z,15.10
2022-08-26T23:20:22.762Z,15.95
2022-08-26T23:22:46.496Z,17.63
2022-08-26T23:25:13.666Z,16.23
2022-08-26T23:27:39.104Z,15.57
2022-08-26T23:30:02.830Z,14.25
2022-08-26T23:32:26.554Z,16.65
2022-08-26T23:34:58.996Z,16.27
2022-08-26T23:37:23.845Z,17.30
2022-08-26T23:39:51.155Z,18.23
2022-08-26T23:42:16.254Z,17.50
2022-08-26T23:44:40.135Z,16.08
2022-08-26T23:47:04.865Z,17.92
2022-08-26T23:49:29.166Z,15.20
2022-08-26T23:52:11.063Z,18.77
2022-08-26T23:54:35.136Z,18.63
2022-08-26T23:56:58.800Z,19.23
2022-08-26T23:59:23.855Z,16.42
